createdAt,value
2023-05-03T00:00:03.337Z,27.12
2023-05-03T00:01:03.289Z,27.08
2023-05-03T00:02:03.370Z,27.10
2023-05-03T00:03:03.471Z,27.08
2023-05-03T00:04:03.480Z,27.10
2023-05-03T00:05:04.755Z,27.10
2023-05-03T00:06:03.658Z,27.09
2023-05-03T00:07:03.629Z,27.09
2023-05-03T00:08:03.683Z,27.10
2023-05-03T00:09:03.714Z,27.08
2023-05-03T00:10:04.121Z,27.09
2023-05-03T00:11:03.841Z,27.09
2023-05-03T00:12:03.896Z,27.09
2023-05-03T00:13:03.977Z,27.09
2023-05-03T00:14:04.028Z,27.09
2023-05-03T00:15:04.100Z,27.09
2023-05-03T00:16:04.144Z,27.10
2023-05-03T00:17:04.269Z,27.12
2023-05-03T00:18:04.321Z,27.10
2023-05-03T00:19:04.295Z,27.08
2023-05-03T00:20:04.580Z,27.08
2023-05-03T00:21:04.492Z,27.10
2023-05-03T00:22:04.494Z,27.09
2023-05-03T00:23:04.580Z,27.09
2023-05-03T00:24:04.615Z,27.09
2023-05-03T00:25:04.702Z,27.09
2023-05-03T00:26:04.725Z,27.09
2023-05-03T00:27:04.800Z,27.08
2023-05-03T00:28:04.909Z,27.09
2023-05-03T00:29:04.963Z,27.09
2023-05-03T00:30:05.397Z,27.09
2023-05-03T00:31:05.111Z,27.09
2023-05-03T00:32:05.090Z,27.08
2023-05-03T00:33:05.267Z,27.09
2023-05-03T00:34:05.262Z,27.09
2023-05-03T00:35:05.372Z,27.09
2023-05-03T00:36:05.324Z,27.09
2023-05-03T00:37:05.367Z,27.09
2023-05-03T00:38:05.382Z,27.08
2023-05-03T00:39:05.438Z,27.08
2023-05-03T00:40:05.696Z,27.09
2023-05-03T00:41:05.478Z,27.06
2023-05-03T00:42:05.561Z,27.09
2023-05-03T00:43:05.573Z,27.08
2023-05-03T00:44:05.682Z,27.09
2023-05-03T00:45:05.715Z,27.10
2023-05-03T00:46:16.171Z,27.09
2023-05-03T00:47:06.770Z,27.09
2023-05-03T00:48:05.796Z,27.08
2023-05-03T00:49:05.773Z,27.08
2023-05-03T00:50:05.968Z,27.08
2023-05-03T00:51:05.698Z,27.06
2023-05-03T00:52:05.731Z,27.09
2023-05-03T00:53:05.691Z,27.06
2023-05-03T00:54:05.699Z,27.06
2023-05-03T00:55:05.700Z,27.05
2023-05-03T00:56:05.690Z,27.06
2023-05-03T00:57:05.724Z,27.06
2023-05-03T00:58:05.665Z,27.06
2023-05-03T00:59:05.670Z,27.06
2023-05-03T01:00:05.961Z,27.06
2023-05-03T01:01:05.782Z,27.06
2023-05-03T01:02:05.813Z,27.05
2023-05-03T01:03:05.915Z,27.08
2023-05-03T01:04:05.990Z,27.06
2023-05-03T01:05:06.002Z,27.05
2023-05-03T01:06:06.053Z,27.06
2023-05-03T01:07:06.102Z,27.06
2023-05-03T01:08:06.203Z,27.08
2023-05-03T01:09:06.255Z,27.06
2023-05-03T01:10:06.466Z,27.06
2023-05-03T01:11:06.375Z,27.05
2023-05-03T01:12:06.484Z,27.09
2023-05-03T01:13:06.472Z,27.08
2023-05-03T01:14:06.555Z,27.06
2023-05-03T01:15:06.613Z,27.09
2023-05-03T01:16:06.660Z,27.05
2023-05-03T01:17:06.685Z,27.08
2023-05-03T01:18:06.839Z,27.06
2023-05-03T01:19:06.834Z,27.08
2023-05-03T01:20:06.890Z,27.06
2023-05-03T01:21:06.940Z,27.05
2023-05-03T01:22:06.966Z,27.08
2023-05-03T01:23:07.057Z,27.08
2023-05-03T01:24:07.082Z,27.06
2023-05-03T01:25:07.091Z,27.08
2023-05-03T01:26:07.106Z,27.08
2023-05-03T01:27:07.133Z,27.06
2023-05-03T01:28:07.182Z,27.06
2023-05-03T01:29:07.183Z,27.06
2023-05-03T01:30:07.236Z,27.05
2023-05-03T01:31:07.265Z,27.06
2023-05-03T01:32:07.446Z,27.05
2023-05-03T01:33:07.336Z,27.06
2023-05-03T01:34:07.295Z,27.03
2023-05-03T01:35:07.268Z,27.08
2023-05-03T01:36:07.267Z,27.06
2023-05-03T01:37:07.340Z,27.05
2023-05-03T01:38:07.338Z,27.03
2023-05-03T01:39:07.345Z,27.05
2023-05-03T01:40:07.297Z,27.05
2023-05-03T01:41:07.348Z,27.06
2023-05-03T01:42:07.368Z,27.05
2023-05-03T01:43:07.319Z,27.05
2023-05-03T01:44:07.338Z,27.06
2023-05-03T01:45:07.457Z,27.03
2023-05-03T01:46:07.628Z,27.05
2023-05-03T01:47:07.525Z,27.05
2023-05-03T01:48:07.603Z,27.03
2023-05-03T01:49:07.641Z,27.05
2023-05-03T01:50:07.720Z,27.05
2023-05-03T01:51:07.757Z,27.02
2023-05-03T01:52:07.865Z,27.02
2023-05-03T01:53:07.978Z,27.03
2023-05-03T01:54:07.981Z,27.05
2023-05-03T01:55:07.982Z,27.03
2023-05-03T01:56:08.056Z,27.03
2023-05-03T01:57:08.127Z,27.03
2023-05-03T01:58:08.195Z,27.06
2023-05-03T01:59:08.243Z,27.03
2023-05-03T02:00:08.298Z,27.05
2023-05-03T02:01:08.385Z,27.06
2023-05-03T02:02:08.448Z,27.05
2023-05-03T02:03:08.582Z,27.06
2023-05-03T02:04:08.629Z,27.05
2023-05-03T02:05:08.641Z,27.05
2023-05-03T02:06:08.692Z,27.05
2023-05-03T02:07:08.781Z,27.02
2023-05-03T02:08:08.800Z,27.05
2023-05-03T02:09:08.829Z,27.03
2023-05-03T02:10:08.900Z,27.06
2023-05-03T02:11:08.939Z,27.06
2023-05-03T02:12:08.994Z,27.02
2023-05-03T02:13:09.074Z,27.03
2023-05-03T02:14:09.149Z,27.03
2023-05-03T02:15:09.181Z,27.05
2023-05-03T02:16:09.327Z,27.06
2023-05-03T02:17:09.438Z,27.05
2023-05-03T02:18:09.400Z,27.05
2023-05-03T02:19:09.437Z,27.05
2023-05-03T02:20:09.472Z,27.05
2023-05-03T02:21:09.510Z,27.02
2023-05-03T02:22:09.581Z,27.03
2023-05-03T02:23:09.652Z,27.03
2023-05-03T02:24:09.728Z,27.05
2023-05-03T02:25:09.750Z,27.02
2023-05-03T02:26:09.825Z,27.03
2023-05-03T02:27:09.872Z,27.02
2023-05-03T02:28:09.943Z,27.06
2023-05-03T02:29:09.992Z,27.03
2023-05-03T02:30:10.070Z,27.03
2023-05-03T02:31:10.112Z,27.03
2023-05-03T02:32:10.103Z,27.02
2023-05-03T02:33:10.215Z,27.02
2023-05-03T02:34:10.227Z,27.03
2023-05-03T02:35:10.304Z,27.02
2023-05-03T02:36:10.381Z,27.01
2023-05-03T02:37:10.400Z,27.03
2023-05-03T02:38:10.442Z,27.03
2023-05-03T02:39:10.532Z,27.03
2023-05-03T02:40:10.634Z,27.03
2023-05-03T02:41:10.631Z,27.03
2023-05-03T02:42:10.699Z,27.03
2023-05-03T02:43:10.730Z,27.02
2023-05-03T02:44:10.828Z,27.05
2023-05-03T02:45:10.841Z,27.05
2023-05-03T02:46:10.933Z,27.02
2023-05-03T02:47:10.959Z,27.02
2023-05-03T02:48:11.026Z,27.01
2023-05-03T02:49:11.105Z,27.01
2023-05-03T02:50:11.105Z,27.02
2023-05-03T02:51:11.255Z,27.03
2023-05-03T02:52:11.543Z,27.02
2023-05-03T02:53:11.302Z,27.03
2023-05-03T02:54:11.407Z,27.03
2023-05-03T02:55:11.467Z,27.03
2023-05-03T02:56:11.506Z,27.03
2023-05-03T02:57:11.530Z,27.02
2023-05-03T02:58:11.585Z,27.02
2023-05-03T02:59:11.646Z,27.03
2023-05-03T03:00:11.701Z,27.02
2023-05-03T03:01:11.751Z,27.03
2023-05-03T03:02:11.813Z,27.02
2023-05-03T03:03:11.936Z,27.02
2023-05-03T03:04:11.968Z,27.01
2023-05-03T03:05:11.944Z,27.03
2023-05-03T03:06:12.033Z,27.01
2023-05-03T03:07:12.019Z,27.02
2023-05-03T03:08:11.964Z,27.03
2023-05-03T03:09:11.971Z,27.03
2023-05-03T03:10:12.001Z,27.02
2023-05-03T03:11:12.000Z,27.02
2023-05-03T03:12:12.061Z,27.02
2023-05-03T03:13:12.143Z,27.01
2023-05-03T03:14:12.163Z,27.02
2023-05-03T03:15:12.207Z,27.02
2023-05-03T03:16:12.269Z,27.02
2023-05-03T03:17:12.283Z,27.02
2023-05-03T03:18:12.374Z,27.02
2023-05-03T03:19:12.411Z,27.02
2023-05-03T03:20:12.451Z,27.01
2023-05-03T03:21:12.595Z,27.02
2023-05-03T03:22:12.602Z,27.02
2023-05-03T03:23:12.701Z,27.01
2023-05-03T03:24:12.708Z,27.03
2023-05-03T03:25:12.746Z,26.99
2023-05-03T03:26:12.840Z,27.01
2023-05-03T03:27:12.902Z,27.01
2023-05-03T03:28:12.982Z,27.02
2023-05-03T03:29:12.996Z,27.01
2023-05-03T03:30:13.059Z,26.99
2023-05-03T03:31:13.220Z,27.01
2023-05-03T03:32:13.174Z,26.99
2023-05-03T03:33:13.322Z,27.01
2023-05-03T03:34:13.282Z,26.99
2023-05-03T03:35:13.336Z,27.01
2023-05-03T03:36:13.392Z,27.01
2023-05-03T03:37:13.491Z,27.02
2023-05-03T03:38:13.528Z,27.01
2023-05-03T03:39:13.603Z,27.01
2023-05-03T03:40:13.649Z,27.02
2023-05-03T03:41:13.716Z,26.99
2023-05-03T03:42:13.798Z,27.01
2023-05-03T03:43:13.799Z,27.01
2023-05-03T03:44:13.852Z,26.99
2023-05-03T03:45:13.951Z,26.99
2023-05-03T03:46:14.034Z,27.02
2023-05-03T03:47:14.238Z,27.02
2023-05-03T03:48:14.192Z,27.02
2023-05-03T03:49:14.192Z,26.99
2023-05-03T03:50:14.248Z,27.01
2023-05-03T03:51:14.304Z,26.99
2023-05-03T03:52:14.356Z,27.01
2023-05-03T03:53:14.413Z,27.01
2023-05-03T03:54:14.463Z,27.01
2023-05-03T03:55:14.531Z,27.01
2023-05-03T03:56:14.558Z,27.01
2023-05-03T03:57:14.737Z,27.01
2023-05-03T03:58:14.720Z,27.01
2023-05-03T03:59:14.762Z,27.02
2023-05-03T04:00:14.878Z,27.02
2023-05-03T04:01:14.882Z,27.02
2023-05-03T04:02:15.029Z,26.99
2023-05-03T04:03:15.049Z,26.99
2023-05-03T04:04:15.108Z,27.03
2023-05-03T04:05:15.127Z,27.03
2023-05-03T04:06:15.228Z,27.05
2023-05-03T04:07:15.245Z,27.01
2023-05-03T04:08:15.292Z,27.02
2023-05-03T04:09:15.317Z,27.01
2023-05-03T04:10:15.357Z,26.98
2023-05-03T04:11:15.355Z,26.98
2023-05-03T04:12:15.364Z,26.98
2023-05-03T04:13:15.367Z,26.92
2023-05-03T04:14:15.387Z,26.92
2023-05-03T04:15:15.382Z,26.91
2023-05-03T04:16:15.407Z,26.92
2023-05-03T04:17:15.392Z,26.92
2023-05-03T04:18:15.413Z,26.92
2023-05-03T04:19:15.604Z,26.88
2023-05-03T04:20:15.425Z,26.85
2023-05-03T04:21:15.425Z,26.85
2023-05-03T04:22:15.433Z,26.89
2023-05-03T04:23:15.488Z,26.87
2023-05-03T04:24:15.451Z,26.81
2023-05-03T04:25:15.405Z,26.81
2023-05-03T04:26:27.778Z,26.77
2023-05-03T04:27:16.444Z,26.74
2023-05-03T04:28:15.420Z,26.77
2023-05-03T04:29:15.415Z,26.74
2023-05-03T04:30:15.508Z,26.71
2023-05-03T04:31:15.422Z,26.71
2023-05-03T04:32:15.401Z,26.71
2023-05-03T04:33:15.395Z,26.68
2023-05-03T04:34:15.613Z,26.70
2023-05-03T04:35:15.388Z,26.71
2023-05-03T04:36:15.338Z,26.73
2023-05-03T04:37:15.443Z,26.71
2023-05-03T04:38:15.388Z,26.71
2023-05-03T04:39:15.351Z,26.75
2023-05-03T04:40:15.331Z,26.73
2023-05-03T04:41:16.149Z,26.71
2023-05-03T04:42:15.341Z,26.77
2023-05-03T04:43:15.323Z,26.77
2023-05-03T04:44:15.309Z,26.78
2023-05-03T04:45:15.395Z,26.75
2023-05-03T04:46:15.355Z,26.78
2023-05-03T04:47:15.307Z,26.78
2023-05-03T04:48:15.321Z,26.79
2023-05-03T04:49:15.268Z,26.81
2023-05-03T04:50:15.307Z,26.81
2023-05-03T04:51:15.241Z,26.84
2023-05-03T04:52:15.252Z,26.79
2023-05-03T04:53:15.332Z,26.81
2023-05-03T04:54:15.220Z,26.82
2023-05-03T04:55:15.222Z,26.84
2023-05-03T04:56:15.191Z,26.85
2023-05-03T04:57:15.221Z,26.85
2023-05-03T04:58:15.233Z,26.84
2023-05-03T04:59:15.223Z,26.85
2023-05-03T05:00:15.207Z,26.87
2023-05-03T05:01:15.299Z,26.85
2023-05-03T05:02:15.244Z,26.84
2023-05-03T05:03:15.276Z,26.89
2023-05-03T05:04:15.272Z,26.85
2023-05-03T05:05:15.582Z,26.88
2023-05-03T05:06:15.277Z,26.88
2023-05-03T05:07:15.224Z,26.88
2023-05-03T05:08:15.261Z,26.87
2023-05-03T05:09:15.249Z,26.87
2023-05-03T05:10:15.241Z,26.88
2023-05-03T05:11:15.249Z,26.89
2023-05-03T05:12:15.267Z,26.87
2023-05-03T05:13:15.304Z,26.89
2023-05-03T05:14:15.266Z,26.88
2023-05-03T05:15:15.252Z,26.89
2023-05-03T05:16:15.316Z,26.91
2023-05-03T05:17:15.293Z,26.91
2023-05-03T05:18:15.369Z,26.91
2023-05-03T05:19:15.266Z,26.92
2023-05-03T05:20:16.277Z,26.91
2023-05-03T05:21:15.261Z,26.92
2023-05-03T05:22:15.267Z,26.92
2023-05-03T05:23:15.297Z,26.95
2023-05-03T05:24:15.287Z,26.95
2023-05-03T05:25:15.290Z,26.97
2023-05-03T05:26:15.302Z,26.95
2023-05-03T05:27:15.704Z,26.97
2023-05-03T05:28:15.282Z,26.94
2023-05-03T05:29:15.287Z,26.95
2023-05-03T05:30:15.288Z,26.94
2023-05-03T05:31:15.331Z,26.92
2023-05-03T05:32:15.277Z,26.92
2023-05-03T05:33:17.426Z,26.87
2023-05-03T05:34:15.627Z,26.85
2023-05-03T05:35:15.295Z,26.77
2023-05-03T05:36:15.353Z,26.81
2023-05-03T05:37:15.280Z,26.79
2023-05-03T05:38:15.269Z,26.77
2023-05-03T05:39:15.267Z,26.77
2023-05-03T05:40:15.249Z,26.68
2023-05-03T05:41:15.773Z,26.74
2023-05-03T05:42:16.213Z,26.75
2023-05-03T05:43:15.256Z,26.71
2023-05-03T05:44:15.248Z,26.77
2023-05-03T05:45:15.313Z,26.78
2023-05-03T05:46:15.309Z,26.84
2023-05-03T05:47:15.447Z,26.88
2023-05-03T05:48:15.355Z,26.88
2023-05-03T05:49:15.350Z,26.98
2023-05-03T05:50:18.803Z,27.01
2023-05-03T05:51:15.398Z,27.08
2023-05-03T05:52:15.352Z,27.12
2023-05-03T05:53:15.344Z,27.16
2023-05-03T05:54:15.319Z,27.25
2023-05-03T05:55:15.324Z,27.29
2023-05-03T05:56:15.329Z,27.33
2023-05-03T05:57:15.297Z,27.40
2023-05-03T05:58:15.280Z,27.42
2023-05-03T05:59:15.359Z,27.50
2023-05-03T06:00:15.315Z,27.52
2023-05-03T06:01:15.330Z,27.54
2023-05-03T06:02:15.288Z,27.56
2023-05-03T06:03:15.268Z,27.60
2023-05-03T06:04:15.253Z,27.66
2023-05-03T06:05:15.392Z,27.72
2023-05-03T06:06:15.329Z,27.74
2023-05-03T06:07:15.231Z,27.83
2023-05-03T06:08:15.201Z,27.87
2023-05-03T06:09:24.112Z,27.89
2023-05-03T06:10:16.219Z,27.97
2023-05-03T06:11:16.077Z,28.00
2023-05-03T06:12:15.244Z,28.01
2023-05-03T06:13:15.176Z,28.03
2023-05-03T06:14:15.206Z,28.05
2023-05-03T06:15:15.149Z,28.10
2023-05-03T06:16:15.170Z,28.14
2023-05-03T06:17:15.271Z,28.15
2023-05-03T06:18:15.217Z,28.17
2023-05-03T06:19:15.148Z,28.23
2023-05-03T06:20:15.151Z,28.24
2023-05-03T06:21:15.136Z,28.21
2023-05-03T06:22:15.112Z,28.30
2023-05-03T06:23:15.101Z,28.31
2023-05-03T06:24:15.088Z,28.28
2023-05-03T06:25:16.999Z,28.30
2023-05-03T06:26:15.086Z,28.33
2023-05-03T06:27:15.086Z,28.34
2023-05-03T06:28:15.115Z,28.37
2023-05-03T06:29:15.095Z,28.40
2023-05-03T06:30:15.054Z,28.44
2023-05-03T06:31:15.090Z,28.41
2023-05-03T06:32:15.045Z,28.47
2023-05-03T06:33:15.087Z,28.47
2023-05-03T06:34:15.039Z,28.48
2023-05-03T06:35:15.000Z,28.43
2023-05-03T06:36:15.061Z,28.45
2023-05-03T06:37:15.016Z,28.45
2023-05-03T06:38:15.026Z,28.48
2023-05-03T06:39:15.011Z,28.50
2023-05-03T06:40:15.020Z,28.47
2023-05-03T06:41:14.979Z,28.31
2023-05-03T06:42:14.990Z,28.24
2023-05-03T06:43:14.974Z,28.18
2023-05-03T06:44:14.936Z,28.17
2023-05-03T06:45:15.017Z,28.18
2023-05-03T06:46:14.958Z,28.17
2023-05-03T06:47:15.155Z,28.14
2023-05-03T06:48:15.026Z,28.17
2023-05-03T06:49:15.176Z,28.20
2023-05-03T06:50:14.912Z,28.24
2023-05-03T06:51:14.927Z,28.24
2023-05-03T06:52:14.920Z,28.27
2023-05-03T06:53:14.896Z,28.30
2023-05-03T06:54:14.901Z,28.31
2023-05-03T06:55:16.201Z,28.37
2023-05-03T06:56:14.882Z,28.41
2023-05-03T06:57:14.862Z,28.40
2023-05-03T06:58:15.438Z,28.44
2023-05-03T06:59:14.892Z,28.47
2023-05-03T07:00:14.835Z,28.52
2023-05-03T07:01:14.890Z,28.52
2023-05-03T07:02:14.848Z,28.56
2023-05-03T07:03:14.877Z,28.58
2023-05-03T07:04:14.861Z,28.59
2023-05-03T07:05:14.866Z,28.64
2023-05-03T07:06:14.863Z,28.62
2023-05-03T07:07:14.879Z,28.66
2023-05-03T07:08:14.867Z,28.71
2023-05-03T07:09:14.784Z,28.74
2023-05-03T07:10:15.178Z,28.74
2023-05-03T07:11:15.240Z,28.78
2023-05-03T07:12:14.755Z,28.78
2023-05-03T07:13:14.797Z,28.81
2023-05-03T07:14:14.804Z,28.81
2023-05-03T07:15:14.744Z,28.82
2023-05-03T07:16:14.801Z,28.86
2023-05-03T07:17:14.751Z,28.86
2023-05-03T07:18:14.788Z,28.88
2023-05-03T07:19:14.807Z,28.89
2023-05-03T07:20:14.776Z,28.91
2023-05-03T07:21:14.813Z,28.94
2023-05-03T07:22:14.817Z,28.96
2023-05-03T07:23:14.897Z,28.95
2023-05-03T07:24:14.902Z,28.98
2023-05-03T07:25:15.084Z,29.01
2023-05-03T07:26:14.941Z,29.03
2023-05-03T07:27:14.929Z,29.08
2023-05-03T07:28:14.994Z,29.05
2023-05-03T07:29:15.007Z,29.09
2023-05-03T07:30:14.964Z,29.13
2023-05-03T07:31:14.978Z,29.15
2023-05-03T07:32:15.250Z,29.12
2023-05-03T07:33:15.173Z,28.88
2023-05-03T07:34:14.995Z,28.78
2023-05-03T07:35:15.072Z,28.55
2023-05-03T07:36:15.105Z,28.43
2023-05-03T07:37:15.204Z,28.24
2023-05-03T07:38:15.207Z,28.13
2023-05-03T07:39:15.231Z,28.08
2023-05-03T07:40:15.249Z,28.07
2023-05-03T07:41:15.281Z,28.01
2023-05-03T07:42:15.758Z,28.01
2023-05-03T07:43:16.232Z,28.00
2023-05-03T07:44:15.396Z,27.99
2023-05-03T07:45:15.733Z,27.99
2023-05-03T07:46:15.531Z,27.97
2023-05-03T07:47:15.572Z,28.01
2023-05-03T07:48:15.550Z,28.00
2023-05-03T07:49:15.473Z,28.04
2023-05-03T07:50:15.496Z,28.07
2023-05-03T07:51:15.715Z,28.08
2023-05-03T07:52:15.498Z,28.10
2023-05-03T07:53:15.504Z,28.13
2023-05-03T07:54:15.518Z,28.10
2023-05-03T07:55:15.526Z,28.14
2023-05-03T07:56:15.530Z,28.14
2023-05-03T07:57:15.497Z,28.17
2023-05-03T07:58:15.600Z,28.21
2023-05-03T07:59:15.573Z,28.21
2023-05-03T08:00:15.582Z,28.23
2023-05-03T08:01:15.706Z,28.27
2023-05-03T08:02:15.738Z,28.28
2023-05-03T08:03:15.868Z,28.30
2023-05-03T08:04:16.113Z,28.31
2023-05-03T08:05:16.057Z,28.33
2023-05-03T08:06:15.908Z,28.35
2023-05-03T08:07:15.972Z,28.37
2023-05-03T08:08:16.017Z,28.35
2023-05-03T08:09:16.047Z,28.37
2023-05-03T08:10:16.131Z,28.38
2023-05-03T08:11:16.204Z,28.37
2023-05-03T08:12:16.217Z,28.40
2023-05-03T08:13:16.323Z,28.44
2023-05-03T08:14:16.356Z,28.41
2023-05-03T08:15:16.474Z,28.43
2023-05-03T08:16:16.614Z,28.44
2023-05-03T08:17:16.579Z,28.38
2023-05-03T08:18:16.625Z,28.44
2023-05-03T08:19:16.675Z,28.45
2023-05-03T08:20:16.692Z,28.47
2023-05-03T08:21:16.822Z,28.48
2023-05-03T08:22:16.840Z,28.47
2023-05-03T08:23:16.884Z,28.40
2023-05-03T08:24:16.962Z,28.44
2023-05-03T08:25:17.073Z,28.45
2023-05-03T08:26:17.217Z,28.37
2023-05-03T08:27:17.327Z,28.21
2023-05-03T08:28:17.229Z,28.11
2023-05-03T08:29:17.237Z,28.04
2023-05-03T08:30:17.293Z,27.94
2023-05-03T08:31:17.415Z,27.50
2023-05-03T08:32:17.374Z,27.42
2023-05-03T08:33:17.718Z,27.01
2023-05-03T08:34:17.413Z,27.13
2023-05-03T08:35:17.431Z,27.06
2023-05-03T08:36:17.404Z,27.05
2023-05-03T08:37:17.448Z,27.06
2023-05-03T08:38:17.399Z,26.92
2023-05-03T08:39:17.452Z,26.92
2023-05-03T08:40:17.521Z,26.68
2023-05-03T08:41:17.736Z,26.33
2023-05-03T08:42:17.515Z,26.44
2023-05-03T08:43:17.502Z,26.47
2023-05-03T08:44:17.525Z,26.48
2023-05-03T08:45:17.527Z,26.51
2023-05-03T08:46:17.612Z,26.58
2023-05-03T08:47:17.546Z,26.59
2023-05-03T08:48:17.568Z,26.78
2023-05-03T08:49:17.573Z,26.79
2023-05-03T08:50:17.638Z,26.89
2023-05-03T08:51:17.632Z,26.99
2023-05-03T08:52:17.593Z,27.03
2023-05-03T08:53:17.620Z,27.18
2023-05-03T08:54:17.760Z,27.21
2023-05-03T08:55:17.771Z,27.28
2023-05-03T08:56:17.788Z,27.39
2023-05-03T08:57:17.858Z,27.43
2023-05-03T08:58:17.886Z,27.49
2023-05-03T08:59:17.953Z,27.57
2023-05-03T09:00:18.005Z,27.59
2023-05-03T09:01:18.071Z,27.69
2023-05-03T09:02:18.331Z,27.70
2023-05-03T09:03:18.127Z,27.77
2023-05-03T09:04:18.404Z,27.84
2023-05-03T09:05:18.165Z,27.89
2023-05-03T09:06:18.221Z,27.93
2023-05-03T09:07:18.125Z,27.97
2023-05-03T09:08:18.157Z,27.97
2023-05-03T09:09:18.166Z,28.00
2023-05-03T09:10:18.133Z,28.01
2023-05-03T09:11:18.195Z,28.07
2023-05-03T09:12:18.159Z,28.10
2023-05-03T09:13:18.150Z,28.11
2023-05-03T09:14:18.135Z,28.14
2023-05-03T09:15:18.155Z,28.17
2023-05-03T09:16:18.202Z,28.21
2023-05-03T09:17:18.128Z,28.23
2023-05-03T09:18:18.293Z,28.27
2023-05-03T09:19:18.166Z,28.25
2023-05-03T09:20:18.192Z,28.27
2023-05-03T09:21:18.244Z,28.30
2023-05-03T09:22:18.260Z,28.33
2023-05-03T09:23:18.260Z,28.34
2023-05-03T09:24:18.403Z,28.34
2023-05-03T09:25:18.400Z,28.38
2023-05-03T09:26:18.382Z,28.37
2023-05-03T09:27:18.420Z,28.43
2023-05-03T09:28:18.512Z,28.41
2023-05-03T09:29:18.512Z,28.40
2023-05-03T09:30:18.640Z,28.44
2023-05-03T09:31:18.790Z,28.30
2023-05-03T09:32:18.609Z,28.40
2023-05-03T09:33:18.589Z,28.44
2023-05-03T09:34:18.593Z,28.45
2023-05-03T09:35:18.760Z,28.44
2023-05-03T09:36:18.605Z,28.41
2023-05-03T09:37:18.549Z,28.41
2023-05-03T09:38:18.633Z,28.40
2023-05-03T09:39:18.574Z,28.37
2023-05-03T09:40:18.629Z,28.37
2023-05-03T09:41:18.595Z,28.38
2023-05-03T09:42:18.593Z,28.40
2023-05-03T09:43:19.596Z,28.38
2023-05-03T09:44:18.622Z,28.38
2023-05-03T09:45:18.767Z,28.37
2023-05-03T09:46:18.705Z,28.40
2023-05-03T09:47:18.788Z,28.45
2023-05-03T09:48:18.786Z,28.41
2023-05-03T09:49:18.852Z,28.44
2023-05-03T09:50:18.951Z,28.41
2023-05-03T09:51:18.934Z,28.44
2023-05-03T09:52:18.970Z,28.44
2023-05-03T09:53:19.115Z,28.43
2023-05-03T09:54:19.092Z,28.47
2023-05-03T09:55:19.349Z,28.50
2023-05-03T09:56:19.147Z,28.50
2023-05-03T09:57:19.216Z,28.50
2023-05-03T09:58:19.279Z,28.54
2023-05-03T09:59:19.331Z,28.54
2023-05-03T10:00:19.383Z,28.55
2023-05-03T10:01:19.489Z,28.54
2023-05-03T10:02:19.442Z,28.56
2023-05-03T10:03:19.504Z,28.62
2023-05-03T10:04:19.687Z,28.62
2023-05-03T10:05:19.572Z,28.62
2023-05-03T10:06:19.710Z,28.64
2023-05-03T10:07:19.661Z,28.65
2023-05-03T10:08:19.742Z,28.69
2023-05-03T10:09:20.261Z,28.69
2023-05-03T10:10:20.268Z,28.69
2023-05-03T10:11:19.926Z,28.71
2023-05-03T10:12:20.278Z,28.76
2023-05-03T10:13:20.002Z,28.75
2023-05-03T10:14:20.087Z,28.78
2023-05-03T10:15:20.151Z,28.76
2023-05-03T10:16:20.329Z,28.78
2023-05-03T10:17:20.374Z,28.78
2023-05-03T10:18:20.369Z,28.78
2023-05-03T10:19:20.388Z,28.78
2023-05-03T10:20:20.440Z,28.78
2023-05-03T10:21:20.508Z,28.78
2023-05-03T10:22:20.824Z,28.76
2023-05-03T10:23:20.622Z,28.79
2023-05-03T10:24:20.663Z,28.78
2023-05-03T10:25:20.720Z,28.74
2023-05-03T10:26:20.783Z,28.78
2023-05-03T10:27:20.849Z,28.81
2023-05-03T10:28:20.964Z,28.81
2023-05-03T10:29:20.962Z,28.81
2023-05-03T10:30:21.013Z,28.86
2023-05-03T10:31:21.110Z,28.89
2023-05-03T10:32:21.099Z,28.92
2023-05-03T10:33:21.132Z,28.95
2023-05-03T10:34:21.196Z,28.99
2023-05-03T10:35:21.249Z,28.99
2023-05-03T10:36:21.256Z,29.02
2023-05-03T10:37:21.314Z,29.02
2023-05-03T10:38:21.350Z,29.03
2023-05-03T10:39:21.385Z,29.06
2023-05-03T10:40:21.404Z,29.02
2023-05-03T10:41:21.451Z,29.03
2023-05-03T10:42:21.521Z,29.09
2023-05-03T10:43:21.562Z,29.08
2023-05-03T10:44:21.634Z,29.12
2023-05-03T10:45:21.644Z,29.17
2023-05-03T10:46:21.747Z,29.19
2023-05-03T10:47:21.823Z,29.19
2023-05-03T10:48:21.699Z,29.23
2023-05-03T10:49:21.847Z,29.26
2023-05-03T10:50:21.755Z,29.29
2023-05-03T10:51:21.815Z,29.33
2023-05-03T10:52:21.845Z,29.36
2023-05-03T10:53:21.804Z,29.39
2023-05-03T10:54:21.850Z,29.42
2023-05-03T10:55:21.863Z,29.46
2023-05-03T10:56:21.870Z,29.45
2023-05-03T10:57:21.868Z,29.46
2023-05-03T10:58:21.869Z,29.49
2023-05-03T10:59:21.892Z,29.52
2023-05-03T11:00:21.824Z,29.56
2023-05-03T11:01:21.865Z,29.49
2023-05-03T11:02:21.855Z,29.56
2023-05-03T11:03:22.318Z,29.59
2023-05-03T11:04:21.900Z,29.67
2023-05-03T11:05:21.932Z,29.69
2023-05-03T11:06:22.012Z,29.69
2023-05-03T11:07:21.971Z,29.70
2023-05-03T11:08:22.028Z,29.71
2023-05-03T11:09:22.091Z,29.74
2023-05-03T11:10:22.173Z,29.76
2023-05-03T11:11:22.231Z,29.73
2023-05-03T11:12:22.285Z,29.79
2023-05-03T11:13:22.384Z,29.80
2023-05-03T11:14:22.435Z,29.81
2023-05-03T11:15:22.445Z,29.83
2023-05-03T11:16:22.504Z,29.81
2023-05-03T11:17:22.557Z,29.84
2023-05-03T11:18:22.627Z,29.88
2023-05-03T11:19:22.838Z,29.87
2023-05-03T11:20:22.835Z,29.90
2023-05-03T11:21:22.793Z,29.87
2023-05-03T11:22:22.808Z,29.88
2023-05-03T11:23:22.978Z,29.87
2023-05-03T11:24:22.945Z,29.87
2023-05-03T11:25:23.017Z,29.85
2023-05-03T11:26:23.088Z,29.84
2023-05-03T11:27:23.148Z,29.85
2023-05-03T11:28:23.173Z,29.83
2023-05-03T11:29:23.241Z,29.80
2023-05-03T11:30:23.357Z,29.76
2023-05-03T11:31:23.372Z,29.73
2023-05-03T11:32:23.399Z,29.69
2023-05-03T11:33:23.349Z,29.69
2023-05-03T11:34:23.342Z,29.69
2023-05-03T11:35:23.342Z,29.66
2023-05-03T11:36:23.351Z,29.64
2023-05-03T11:37:23.370Z,29.63
2023-05-03T11:38:23.323Z,29.61
2023-05-03T11:39:23.314Z,29.60
2023-05-03T11:40:23.394Z,29.56
2023-05-03T11:41:23.395Z,29.53
2023-05-03T11:42:23.336Z,29.54
2023-05-03T11:43:23.377Z,29.53
2023-05-03T11:44:23.368Z,29.53
2023-05-03T11:45:23.471Z,29.52
2023-05-03T11:46:23.390Z,29.52
2023-05-03T11:47:23.535Z,29.50
2023-05-03T11:48:23.540Z,29.49
2023-05-03T11:49:23.394Z,29.50
2023-05-03T11:50:23.394Z,29.49
2023-05-03T11:51:23.413Z,29.46
2023-05-03T11:52:23.497Z,29.45
2023-05-03T11:53:23.479Z,29.46
2023-05-03T11:54:26.712Z,29.45
2023-05-03T11:55:23.479Z,29.42
2023-05-03T11:56:23.461Z,29.43
2023-05-03T11:57:23.465Z,29.43
2023-05-03T11:58:23.442Z,29.43
2023-05-03T11:59:23.459Z,29.42
2023-05-03T12:00:23.445Z,29.42
2023-05-03T12:01:23.426Z,29.40
2023-05-03T12:02:23.597Z,29.40
2023-05-03T12:03:25.730Z,29.43
2023-05-03T12:04:24.990Z,29.39
2023-05-03T12:05:23.600Z,29.45
2023-05-03T12:06:24.069Z,29.46
2023-05-03T12:07:25.466Z,29.53
2023-05-03T12:08:25.152Z,29.54
2023-05-03T12:09:24.142Z,29.61
2023-05-03T12:10:26.544Z,29.61
2023-05-03T12:11:26.646Z,29.59
2023-05-03T12:12:27.659Z,29.66
2023-05-03T12:13:25.492Z,29.70
2023-05-03T12:14:23.672Z,29.74
2023-05-03T12:15:24.506Z,29.71
2023-05-03T12:16:23.670Z,29.79
2023-05-03T12:17:23.705Z,29.83
2023-05-03T12:18:23.831Z,29.87
2023-05-03T12:19:23.798Z,29.88
2023-05-03T12:22:26.453Z,29.97
2023-05-03T12:23:26.324Z,29.97
2023-05-03T12:24:24.580Z,29.94
2023-05-03T12:25:26.010Z,29.94
2023-05-03T12:26:23.572Z,29.94
2023-05-03T12:27:24.045Z,29.91
2023-05-03T12:28:23.607Z,29.85
2023-05-03T12:29:23.907Z,29.85
2023-05-03T12:30:23.842Z,29.85
2023-05-03T12:31:23.581Z,29.80
2023-05-03T12:32:23.552Z,29.79
2023-05-03T12:33:23.729Z,29.81
2023-05-03T12:34:32.702Z,29.77
2023-05-03T12:35:27.620Z,29.76
2023-05-03T12:36:25.878Z,29.73
2023-05-03T12:37:26.079Z,29.70
2023-05-03T12:38:24.601Z,29.70
2023-05-03T12:39:27.170Z,29.69
2023-05-03T12:40:33.360Z,29.66
2023-05-03T12:41:52.314Z,29.64
2023-05-03T12:42:26.305Z,29.60
2023-05-03T12:43:23.497Z,29.63
2023-05-03T12:44:23.893Z,29.59
2023-05-03T12:45:23.702Z,29.60
2023-05-03T12:46:33.950Z,29.57
2023-05-03T12:47:28.705Z,29.57
2023-05-03T12:48:23.516Z,29.56
2023-05-03T12:49:23.839Z,29.46
2023-05-03T12:51:25.977Z,29.50
2023-05-03T12:52:36.405Z,29.50
2023-05-03T12:53:26.185Z,29.49
2023-05-03T12:54:26.902Z,29.47
2023-05-03T12:55:25.380Z,29.50